メインページ
METAR-TAF:

METAR-TAF

空港 :

コルドバ, アルゼンチン

緯度: 31-19S, 経度: 064-13W, 海抜: 484m

現時点の気象観測

当レポートは39分前の05:35(UTC)に作成
北東の風 5kt
気温 22°C
湿度 100%
気圧 1017 hPa
視程: 3000m
高度600ftの千切れ雲あり
高度3400ftの雲は散在している, 積乱雲.
激しい雷雨, 雨

METAR: SACO 280535Z 05005KT 3000 TSRA BKN006 SCT034CB 22/22 Q1017

時間: 03:14 (06:14 UTC)

予報

当レポートは1時間14分前の05:00(UTC)に作成
予報は28日の 06時(UTC)から 29日の 06時(UTC)まで有効
の風 5kt
視程: 6000m
高度1200ftの雲は散在している
高度2000ftの千切れ雲あり
高度4000ftの雲はほとんどない, 積乱雲.
確率 30% :
28日の 08時(UTC)から 28日の 12時(UTC)まで一時的に
変向風 3kt
視程: 1000m
高度1000ftの曇り
散在霧

TAF: SACO 280500Z 2806/2906 36005KT 6000 TSSHRA SCT012 BKN020 FEW040CB TX28/2818Z TN19/2810Z PROB30 TEMPO 2808/2812 VRB03KT 1000 BCFG OVC010

4,000以上の空港の気象観測と天気予報(METAR報とTAF報)

利用可能な観測所は地図上に黄色い丸と赤い丸で示す。

丸の上にカーソルを重ねると観測所名を参照できる。

次にクリックすると気象観測と天気予報を参照できる。

マップの切り替え:黒色「×」印の緑ボタンをクリックして拡大、「-」印の緑ボタンをクリックして縮小、緑色の三角印をクリックして隣りの地図に切り替え


METAR-TAF: